createdAt,value
2019-04-11T00:00:57.694Z,71.10
2019-04-11T00:03:29.163Z,71.10
2019-04-11T00:05:59.573Z,71.10
2019-04-11T00:08:30.166Z,71.20
2019-04-11T00:11:01.549Z,71.30
2019-04-11T00:13:35.965Z,71.80
2019-04-11T00:16:04.755Z,71.70
2019-04-11T00:18:35.622Z,71.80
2019-04-11T00:21:06.775Z,72.20
2019-04-11T00:23:38.530Z,71.90
2019-04-11T00:26:08.938Z,72.20
2019-04-11T00:28:39.522Z,72.20
2019-04-11T00:31:09.970Z,72.10
2019-04-11T00:33:40.568Z,72.40
2019-04-11T00:36:12.388Z,72.50
2019-04-11T00:38:42.774Z,72.40
2019-04-11T00:41:13.405Z,72.20
2019-04-11T00:43:44.267Z,72.60
2019-04-11T00:46:16.229Z,72.60
2019-04-11T00:48:48.100Z,72.70
2019-04-11T00:51:18.752Z,72.60
2019-04-11T00:53:49.997Z,73.00
2019-04-11T00:56:20.415Z,72.80
2019-04-11T00:58:51.998Z,72.70
2019-04-11T01:01:22.358Z,73.20
2019-04-11T01:03:53.645Z,73.00
2019-04-11T01:06:24.167Z,73.30
2019-04-11T01:08:55.836Z,73.30
2019-04-11T01:11:32.324Z,73.50
2019-04-11T01:14:03.601Z,73.40
2019-04-11T01:16:36.726Z,73.50
2019-04-11T01:19:07.115Z,73.80
2019-04-11T01:21:37.467Z,73.90
2019-04-11T01:24:07.789Z,74.00
2019-04-11T01:26:38.222Z,74.10
2019-04-11T01:29:09.253Z,74.50
2019-04-11T01:31:42.723Z,74.60
2019-04-11T01:34:13.170Z,74.80
2019-04-11T01:36:43.503Z,74.70
2019-04-11T01:42:11.135Z,75.50
2019-04-11T01:44:41.451Z,75.00
2019-04-11T01:47:13.419Z,75.40
2019-04-11T01:49:44.110Z,75.20
2019-04-11T01:52:15.361Z,75.50
2019-04-11T01:54:46.652Z,75.50
2019-04-11T01:57:18.002Z,75.60
2019-04-11T01:59:49.374Z,75.70
2019-04-11T02:02:28.673Z,75.80
2019-04-11T02:05:06.566Z,76.10
2019-04-11T02:07:36.899Z,77.10
2019-04-11T02:10:08.542Z,76.10
2019-04-11T02:12:39.396Z,76.10
2019-04-11T02:15:10.300Z,76.20
2019-04-11T02:17:41.144Z,76.00
2019-04-11T02:20:12.522Z,76.00
2019-04-11T02:22:47.173Z,76.50
2019-04-11T02:25:28.393Z,76.10
2019-04-11T02:28:04.510Z,76.40
2019-04-11T02:30:38.719Z,77.00
2019-04-11T02:33:11.824Z,77.00
2019-04-11T02:35:42.814Z,76.70
2019-04-11T02:38:14.842Z,77.20
2019-04-11T02:40:45.926Z,77.40
2019-04-11T02:43:17.940Z,77.20
2019-04-11T02:45:58.140Z,77.40
2019-04-11T02:48:21.346Z,77.90
2019-04-11T02:50:51.839Z,77.60
2019-04-11T02:53:24.450Z,77.80
2019-04-11T02:55:56.601Z,77.90
2019-04-11T02:58:27.811Z,78.50
2019-04-11T03:01:02.716Z,78.10
2019-04-11T03:03:32.004Z,78.30
2019-04-11T03:06:04.429Z,78.40
2019-04-11T03:08:36.586Z,79.00
2019-04-11T03:11:07.751Z,79.00
2019-04-11T03:13:39.100Z,78.80
2019-04-11T03:16:26.469Z,78.90
2019-04-11T03:18:59.301Z,79.40
2019-04-11T03:21:19.998Z,79.60
2019-04-11T03:23:46.783Z,79.60
2019-04-11T03:26:18.893Z,80.00
2019-04-11T03:28:52.194Z,80.50
2019-04-11T03:34:39.438Z,80.90
2019-04-11T03:39:18.207Z,81.40
2019-04-11T03:41:50.418Z,81.00
2019-04-11T03:44:12.097Z,80.90
2019-04-11T03:47:01.361Z,81.50
2019-04-11T03:49:29.359Z,81.70
2019-04-11T03:52:04.174Z,81.80
2019-04-11T03:54:36.756Z,82.00
2019-04-11T03:57:09.625Z,82.80
2019-04-11T03:59:40.723Z,83.30
2019-04-11T04:02:13.043Z,83.50
2019-04-11T04:04:44.154Z,83.60
2019-04-11T04:07:27.804Z,83.80
2019-04-11T04:10:00.360Z,83.50
2019-04-11T04:12:31.416Z,83.60
2019-04-11T04:15:35.868Z,83.80
2019-04-11T04:17:57.310Z,83.80
2019-04-11T04:21:01.865Z,83.40
2019-04-11T04:23:35.802Z,84.00
2019-04-11T04:26:09.558Z,84.10
2019-04-11T04:28:40.645Z,84.20
2019-04-11T04:31:11.512Z,83.40
2019-04-11T04:33:42.988Z,84.70
2019-04-11T04:36:16.033Z,84.80
2019-04-11T04:38:46.570Z,84.70
2019-04-11T04:41:29.949Z,84.60
2019-04-11T04:43:52.780Z,85.10
2019-04-11T04:46:39.619Z,85.10
2019-04-11T04:48:56.319Z,85.00
2019-04-11T04:51:28.702Z,84.70
2019-04-11T04:54:00.109Z,85.10
2019-04-11T04:56:32.246Z,85.10
2019-04-11T04:59:04.736Z,84.90
2019-04-11T05:01:37.181Z,85.70
2019-04-11T05:04:08.965Z,85.50
2019-04-11T05:06:40.868Z,85.40
2019-04-11T05:09:12.916Z,86.10
2019-04-11T05:11:44.623Z,85.90
2019-04-11T05:14:15.356Z,85.90
2019-04-11T05:16:46.120Z,85.80
2019-04-11T05:19:17.013Z,86.10
2019-04-11T05:21:48.312Z,86.90
2019-04-11T05:24:18.723Z,86.70
2019-04-11T05:26:50.226Z,86.70
2019-04-11T05:29:21.621Z,86.90
2019-04-11T05:31:52.014Z,86.70
2019-04-11T05:34:22.360Z,87.10
2019-04-11T05:37:04.949Z,87.20
2019-04-11T05:39:35.936Z,87.60
2019-04-11T05:42:07.131Z,87.50
2019-04-11T05:44:38.305Z,87.40
2019-04-11T05:47:11.882Z,87.30
2019-04-11T05:49:43.906Z,87.20
2019-04-11T05:52:15.725Z,87.40
2019-04-11T05:55:11.479Z,87.30
2019-04-11T05:57:41.530Z,87.50
2019-04-11T06:00:15.879Z,87.50
2019-04-11T06:02:53.869Z,87.30
2019-04-11T06:05:29.641Z,87.10
2019-04-11T06:07:59.985Z,87.10
2019-04-11T06:10:45.126Z,86.90
2019-04-11T06:13:34.114Z,86.70
2019-04-11T06:16:04.780Z,86.60
2019-04-11T06:18:38.172Z,86.30
2019-04-11T06:21:26.729Z,86.10
2019-04-11T06:23:59.288Z,86.00
2019-04-11T06:26:46.956Z,85.80
2019-04-11T06:29:23.269Z,85.40
2019-04-11T06:31:59.451Z,84.10
2019-04-11T06:34:31.412Z,83.60
2019-04-11T06:37:15.140Z,83.10
2019-04-11T06:40:04.190Z,82.40
2019-04-11T06:42:52.363Z,81.40
2019-04-11T06:45:48.049Z,81.00
2019-04-11T06:48:24.813Z,80.40
2019-04-11T06:51:13.624Z,79.50
2019-04-11T06:53:46.196Z,78.90
2019-04-11T06:56:25.379Z,78.80
2019-04-11T06:58:57.509Z,77.90
2019-04-11T07:01:30.050Z,78.20
2019-04-11T07:04:05.126Z,75.00
2019-04-11T07:06:37.769Z,72.90
2019-04-11T07:09:28.708Z,69.30
2019-04-11T07:12:01.361Z,66.20
2019-04-11T07:14:37.570Z,63.00
2019-04-11T07:17:27.474Z,60.60
2019-04-11T07:20:00.139Z,59.90
2019-04-11T07:22:48.921Z,58.90
2019-04-11T07:25:23.828Z,57.80
2019-04-11T07:28:07.905Z,55.70
2019-04-11T07:30:56.134Z,54.00
2019-04-11T07:33:31.347Z,55.00
2019-04-11T07:36:21.109Z,53.10
2019-04-11T07:38:56.731Z,52.90
2019-04-11T07:41:38.949Z,53.10
2019-04-11T07:44:15.447Z,50.40
2019-04-11T07:47:13.658Z,49.20
2019-04-11T07:49:42.891Z,50.40
2019-04-11T07:52:15.525Z,47.00
2019-04-11T07:54:45.955Z,46.70
2019-04-11T07:57:36.379Z,47.10
2019-04-11T08:00:35.906Z,47.20
2019-04-11T08:03:07.632Z,46.40
2019-04-11T08:05:48.644Z,44.70
2019-04-11T08:08:26.557Z,45.20
2019-04-11T08:11:02.364Z,43.20
2019-04-11T08:13:43.404Z,45.00
2019-04-11T08:16:31.406Z,44.30
2019-04-11T08:19:09.734Z,44.10
2019-04-11T08:21:58.750Z,44.00
2019-04-11T08:24:36.672Z,43.70
2019-04-11T08:27:09.498Z,42.60
2019-04-11T08:29:40.119Z,41.80
2019-04-11T08:32:29.581Z,41.80
2019-04-11T08:35:17.639Z,40.40
2019-04-11T08:38:06.269Z,39.20
2019-04-11T08:40:41.335Z,38.80
2019-04-11T08:43:17.073Z,36.50
2019-04-11T08:46:08.702Z,35.30
2019-04-11T08:48:57.277Z,37.20
2019-04-11T08:51:29.490Z,36.00
2019-04-11T08:54:01.543Z,37.20
2019-04-11T08:56:31.857Z,35.70
2019-04-11T08:59:13.472Z,35.10
2019-04-11T09:01:44.300Z,34.20
2019-04-11T09:04:30.287Z,32.90
2019-04-11T09:07:01.116Z,34.00
2019-04-11T09:09:49.386Z,33.30
2019-04-11T09:12:20.574Z,33.10
2019-04-11T09:15:08.589Z,32.30
2019-04-11T09:17:53.511Z,32.40
2019-04-11T09:20:15.744Z,32.80
2019-04-11T09:22:50.650Z,31.90
2019-04-11T09:25:30.247Z,32.10
2019-04-11T09:29:10.246Z,33.70
2019-04-11T09:31:50.089Z,31.70
2019-04-11T09:37:35.990Z,31.60
2019-04-11T09:40:44.706Z,30.00
2019-04-11T09:46:22.095Z,30.40
2019-04-11T09:49:06.671Z,31.50
2019-04-11T09:51:47.799Z,31.40
2019-04-11T09:54:26.209Z,31.80
2019-04-11T09:57:13.299Z,31.90
2019-04-11T09:59:51.857Z,32.00
2019-04-11T10:02:30.737Z,31.00
2019-04-11T10:05:03.310Z,30.20
2019-04-11T10:07:50.740Z,31.40
2019-04-11T10:10:28.984Z,30.70
2019-04-11T10:13:06.922Z,29.90
2019-04-11T10:26:53.069Z,30.30
2019-04-11T10:29:36.996Z,30.90
2019-04-11T10:32:09.099Z,31.20
2019-04-11T10:34:59.499Z,30.90
2019-04-11T10:37:30.029Z,30.00
2019-04-11T10:40:02.326Z,29.80
2019-04-11T10:42:32.908Z,31.40
2019-04-11T10:45:24.903Z,30.70
2019-04-11T10:47:55.998Z,30.50
2019-04-11T10:50:43.040Z,30.40
2019-04-11T10:53:13.379Z,29.50
2019-04-11T10:55:51.761Z,29.60
2019-04-11T10:58:24.741Z,31.20
2019-04-11T11:01:05.756Z,30.20
2019-04-11T11:03:43.797Z,31.00
2019-04-11T11:06:21.920Z,29.60
2019-04-11T11:08:53.888Z,30.80
2019-04-11T11:11:42.274Z,30.70
2019-04-11T11:14:14.344Z,31.10
2019-04-11T11:16:55.216Z,31.80
2019-04-11T11:19:57.366Z,32.70
2019-04-11T11:22:34.602Z,33.10
2019-04-11T11:25:15.024Z,32.70
2019-04-11T11:27:45.764Z,33.70
2019-04-11T11:30:35.297Z,33.80
2019-04-11T11:33:05.806Z,33.10
2019-04-11T11:35:50.050Z,34.40
2019-04-11T11:38:25.974Z,34.10
2019-04-11T11:41:14.394Z,33.10
2019-04-11T11:43:45.414Z,32.90
2019-04-11T11:46:25.523Z,32.30
2019-04-11T11:48:54.277Z,32.30
2019-04-11T11:51:30.039Z,32.80
2019-04-11T11:54:07.168Z,32.40
2019-04-11T11:56:40.243Z,32.10
2019-04-11T11:59:15.517Z,32.70
2019-04-11T12:01:50.779Z,32.90
2019-04-11T12:04:36.405Z,33.90
2019-04-11T12:07:16.957Z,34.30
2019-04-11T12:10:05.205Z,32.20
2019-04-11T12:12:38.004Z,32.80
2019-04-11T12:15:17.690Z,33.20
2019-04-11T12:17:59.631Z,33.10
2019-04-11T12:20:46.094Z,33.70
2019-04-11T12:23:22.698Z,34.50
2019-04-11T12:25:53.586Z,32.80
2019-04-11T12:28:25.764Z,32.80
2019-04-11T12:31:01.396Z,32.70
2019-04-11T12:33:50.150Z,32.50
2019-04-11T12:36:23.019Z,33.20
2019-04-11T12:39:11.239Z,34.20
2019-04-11T12:41:44.847Z,33.60
2019-04-11T12:44:31.827Z,33.50
2019-04-11T12:47:16.142Z,34.50
2019-04-11T12:49:52.971Z,33.50
2019-04-11T12:52:31.507Z,34.00
2019-04-11T12:55:04.089Z,34.70
2019-04-11T12:57:52.434Z,34.70
2019-04-11T13:00:40.743Z,34.70
2019-04-11T13:03:29.013Z,34.60
2019-04-11T13:06:06.752Z,34.20
2019-04-11T13:08:56.992Z,34.40
2019-04-11T13:11:28.911Z,34.00
2019-04-11T13:14:00.908Z,34.80
2019-04-11T13:16:31.248Z,34.30
2019-04-11T13:19:06.184Z,33.90
2019-04-11T13:21:56.208Z,33.30
2019-04-11T13:24:28.220Z,33.40
2019-04-11T13:27:20.524Z,33.50
2019-04-11T13:30:08.425Z,33.60
2019-04-11T13:32:40.409Z,34.00
2019-04-11T13:35:22.977Z,34.40
2019-04-11T13:38:07.008Z,34.40
2019-04-11T13:40:39.072Z,34.00
2019-04-11T13:43:27.289Z,33.90
2019-04-11T13:46:14.030Z,34.70
2019-04-11T13:48:48.932Z,34.00
2019-04-11T13:51:32.984Z,34.40
2019-04-11T13:54:16.728Z,34.40
2019-04-11T13:56:54.843Z,34.00
2019-04-11T13:59:37.106Z,33.30
2019-04-11T14:02:09.227Z,33.20
2019-04-11T14:04:54.575Z,33.80
2019-04-11T14:07:26.804Z,33.30
2019-04-11T14:09:59.085Z,33.90
2019-04-11T14:12:33.395Z,34.30
2019-04-11T14:15:08.682Z,34.30
2019-04-11T14:17:43.385Z,34.90
2019-04-11T14:20:29.295Z,35.20
2019-04-11T14:22:58.314Z,34.50
2019-04-11T14:25:30.323Z,34.10
2019-04-11T14:28:05.197Z,33.60
2019-04-11T14:30:37.191Z,33.90
2019-04-11T14:33:07.595Z,34.60
2019-04-11T14:35:57.730Z,35.50
2019-04-11T14:38:32.086Z,35.80
2019-04-11T14:41:19.054Z,35.80
2019-04-11T14:43:51.032Z,36.40
2019-04-11T14:46:25.899Z,35.30
2019-04-11T14:48:57.101Z,35.10
2019-04-11T14:51:31.549Z,35.30
2019-04-11T14:54:06.263Z,35.80
2019-04-11T14:56:38.310Z,36.20
2019-04-11T14:59:13.071Z,37.30
2019-04-11T15:01:45.048Z,36.00
2019-04-11T15:04:22.924Z,36.10
2019-04-11T15:06:58.178Z,36.20
2019-04-11T15:09:46.430Z,36.80
2019-04-11T15:12:19.053Z,36.50
2019-04-11T15:15:06.358Z,36.90
2019-04-11T15:17:38.333Z,36.40
2019-04-11T15:20:10.909Z,35.40
2019-04-11T15:22:45.822Z,35.40
2019-04-11T15:25:20.480Z,35.40
2019-04-11T15:27:55.435Z,35.70
2019-04-11T15:30:30.096Z,35.50
2019-04-11T15:33:07.841Z,35.90
2019-04-11T15:35:38.195Z,35.60
2019-04-11T15:38:26.467Z,35.20
2019-04-11T15:40:58.472Z,35.50
2019-04-11T15:43:33.386Z,35.50
2019-04-11T15:46:05.380Z,35.70
2019-04-11T15:48:43.148Z,36.40
2019-04-11T15:51:27.220Z,36.70
2019-04-11T15:54:14.186Z,36.80
2019-04-11T15:56:52.485Z,37.30
2019-04-11T15:59:43.764Z,37.30
2019-04-11T16:02:29.306Z,37.30
2019-04-11T16:05:01.924Z,37.80
2019-04-11T16:07:43.477Z,37.90
2019-04-11T16:10:14.859Z,37.10
2019-04-11T16:13:02.733Z,36.90
2019-04-11T16:15:34.725Z,37.50
2019-04-11T16:18:23.226Z,37.00
2019-04-11T16:20:57.952Z,37.00
2019-04-11T16:23:39.091Z,37.30
2019-04-11T16:26:11.077Z,37.10
2019-04-11T16:28:45.888Z,37.90
2019-04-11T16:31:16.230Z,38.10
2019-04-11T16:34:04.533Z,38.00
2019-04-11T16:36:36.505Z,38.10
2019-04-11T16:39:25.710Z,38.10
2019-04-11T16:42:00.275Z,38.40
2019-04-11T16:44:48.612Z,38.60
2019-04-11T16:47:29.752Z,38.90
2019-04-11T16:50:00.087Z,38.70
2019-04-11T16:52:31.606Z,39.00
2019-04-11T16:55:01.949Z,39.40
2019-04-11T16:57:32.284Z,39.70
2019-04-11T17:00:02.682Z,39.40
2019-04-11T17:02:33.295Z,39.70
2019-04-11T17:05:04.709Z,39.60
2019-04-11T17:07:39.613Z,39.20
2019-04-11T17:10:11.741Z,39.30
2019-04-11T17:12:42.073Z,38.50
2019-04-11T17:15:12.495Z,38.50
2019-04-11T17:17:43.810Z,38.50
2019-04-11T17:20:16.068Z,38.30
2019-04-11T17:22:48.425Z,38.20
2019-04-11T17:25:19.845Z,38.20
2019-04-11T17:27:53.237Z,38.60
2019-04-11T17:30:24.640Z,37.90
2019-04-11T17:32:55.695Z,38.40
2019-04-11T17:35:31.530Z,38.60
2019-04-11T17:38:01.120Z,38.80
2019-04-11T17:40:31.721Z,39.00
2019-04-11T17:43:02.057Z,39.10
2019-04-11T17:45:32.393Z,39.40
2019-04-11T17:48:02.722Z,39.40
2019-04-11T17:50:35.007Z,39.50
2019-04-11T17:53:06.735Z,39.60
2019-04-11T17:55:37.069Z,39.40
2019-04-11T17:58:07.412Z,39.70
2019-04-11T18:00:45.217Z,39.30
2019-04-11T18:03:16.627Z,39.30
2019-04-11T18:05:47.933Z,39.20
2019-04-11T18:08:20.197Z,39.40
2019-04-11T18:10:50.336Z,39.50
2019-04-11T18:13:20.674Z,39.30
2019-04-11T18:15:51.011Z,39.00
2019-04-11T18:18:22.332Z,39.80
2019-04-11T18:20:52.688Z,38.60
2019-04-11T18:23:23.016Z,39.00
2019-04-11T18:25:53.377Z,39.10
2019-04-11T18:28:23.709Z,38.20
2019-04-11T18:30:54.754Z,38.20
2019-04-11T18:33:25.170Z,38.30
2019-04-11T18:35:55.535Z,38.00
2019-04-11T18:38:25.858Z,38.90
2019-04-11T18:40:56.201Z,38.90
2019-04-11T18:43:26.534Z,38.60
2019-04-11T18:45:56.877Z,39.00
2019-04-11T18:48:27.331Z,38.90
2019-04-11T18:50:57.672Z,38.60
2019-04-11T18:53:28.010Z,38.90
2019-04-11T18:55:58.341Z,39.30
2019-04-11T18:58:28.752Z,40.10
2019-04-11T19:00:59.679Z,39.30
2019-04-11T19:03:35.981Z,39.80
2019-04-11T19:06:02.161Z,40.80
2019-04-11T19:08:32.494Z,41.30
2019-04-11T19:11:02.928Z,41.40
2019-04-11T19:13:33.270Z,42.50
2019-04-11T19:16:03.881Z,42.90
2019-04-11T19:18:34.202Z,43.40
2019-04-11T19:21:04.554Z,43.20
2019-04-11T19:23:36.730Z,44.20
2019-04-11T19:26:06.925Z,44.40
2019-04-11T19:28:37.267Z,44.70
2019-04-11T19:31:07.602Z,45.80
2019-04-11T19:33:39.964Z,46.70
2019-04-11T19:36:12.249Z,46.90
2019-04-11T19:38:43.269Z,47.10
2019-04-11T19:41:17.114Z,48.20
2019-04-11T19:43:48.920Z,48.70
2019-04-11T19:46:20.480Z,48.90
2019-04-11T19:48:50.401Z,49.20
2019-04-11T19:51:20.780Z,50.10
2019-04-11T19:53:52.181Z,50.60
2019-04-11T19:56:39.222Z,50.90
2019-04-11T19:59:09.554Z,51.30
2019-04-11T20:01:40.213Z,51.60
2019-04-11T20:04:10.561Z,52.20
2019-04-11T20:06:40.902Z,52.70
2019-04-11T20:09:11.312Z,53.00
2019-04-11T20:11:41.730Z,53.00
2019-04-11T20:14:12.069Z,53.60
2019-04-11T20:16:47.622Z,53.90
2019-04-11T20:19:14.747Z,53.80
2019-04-11T20:21:45.091Z,54.40
2019-04-11T20:24:15.440Z,54.50
2019-04-11T20:26:49.742Z,55.60
2019-04-11T20:29:18.885Z,55.00
2019-04-11T20:31:49.831Z,55.10
2019-04-11T20:34:27.308Z,55.60
2019-04-11T20:36:52.209Z,55.30
2019-04-11T20:39:22.544Z,55.30
2019-04-11T20:41:53.484Z,55.40
2019-04-11T20:44:27.231Z,55.20
2019-04-11T20:47:00.090Z,55.80
2019-04-11T20:49:28.647Z,55.90
2019-04-11T20:52:00.055Z,55.50
2019-04-11T20:54:30.399Z,55.80
2019-04-11T20:57:00.774Z,56.10
2019-04-11T20:59:34.880Z,56.10
2019-04-11T21:02:03.618Z,56.20
2019-04-11T21:04:33.917Z,56.50
2019-04-11T21:07:04.236Z,56.30
2019-04-11T21:09:34.585Z,56.20
2019-04-11T21:12:07.452Z,56.50
2019-04-11T21:14:37.503Z,56.50
2019-04-11T21:17:07.857Z,56.70
2019-04-11T21:19:38.192Z,56.50
2019-04-11T21:22:08.533Z,56.50
2019-04-11T21:24:38.860Z,56.60
2019-04-11T21:27:09.211Z,56.60
2019-04-11T21:29:39.549Z,56.60
2019-04-11T21:32:09.893Z,56.60
2019-04-11T21:34:40.239Z,56.50
2019-04-11T21:37:10.579Z,56.80
2019-04-11T21:39:40.939Z,56.70
2019-04-11T21:42:11.282Z,57.50
2019-04-11T21:44:41.617Z,57.00
2019-04-11T21:47:11.947Z,57.20
2019-04-11T21:49:42.314Z,57.20
2019-04-11T21:52:12.999Z,57.40
2019-04-11T21:54:45.297Z,57.50
2019-04-11T21:57:18.406Z,57.40
2019-04-11T21:59:51.229Z,57.50
2019-04-11T22:02:24.071Z,57.80
2019-04-11T22:04:53.554Z,57.60
2019-04-11T22:07:23.885Z,57.80
2019-04-11T22:09:54.253Z,58.00
2019-04-11T22:12:24.663Z,58.00
2019-04-11T22:14:55.005Z,58.10
2019-04-11T22:17:25.339Z,58.30
2019-04-11T22:19:55.696Z,58.30
2019-04-11T22:22:26.046Z,58.60
2019-04-11T22:24:56.360Z,58.40
2019-04-11T22:27:26.699Z,58.70
2019-04-11T22:29:57.046Z,58.90
2019-04-11T22:32:27.372Z,59.10
2019-04-11T22:34:59.136Z,59.10
2019-04-11T22:37:30.044Z,59.30
2019-04-11T22:40:02.092Z,59.80
2019-04-11T22:42:33.955Z,59.90
2019-04-11T22:45:08.475Z,60.00
2019-04-11T22:47:38.316Z,60.40
2019-04-11T22:50:10.065Z,60.30
2019-04-11T22:52:42.301Z,60.40
2019-04-11T22:55:13.461Z,60.70
2019-04-11T22:57:55.771Z,60.60
2019-04-11T23:00:26.145Z,61.10
2019-04-11T23:02:58.123Z,61.10
2019-04-11T23:05:28.474Z,61.30
2019-04-11T23:07:58.792Z,61.50
2019-04-11T23:10:29.136Z,61.50
2019-04-11T23:12:59.477Z,61.30
2019-04-11T23:15:29.812Z,61.70
2019-04-11T23:18:00.144Z,61.60
2019-04-11T23:20:30.480Z,61.70
2019-04-11T23:23:00.826Z,61.30
2019-04-11T23:25:31.503Z,61.50
2019-04-11T23:28:01.831Z,61.70
2019-04-11T23:30:32.162Z,61.50
2019-04-11T23:33:02.563Z,61.50
2019-04-11T23:35:32.917Z,61.50
2019-04-11T23:38:03.244Z,61.80
2019-04-11T23:40:33.602Z,61.90
2019-04-11T23:43:03.949Z,61.50
2019-04-11T23:45:34.284Z,61.70
2019-04-11T23:48:04.693Z,61.40
2019-04-11T23:50:47.787Z,61.60
2019-04-11T23:53:18.122Z,61.60
2019-04-11T23:55:48.471Z,61.90
2019-04-11T23:58:18.804Z,61.90
